sensor_id;sensor_type;location;lat;lon;timestamp;temperature;humidity
64987;DHT22;67903;52.108;9.358;2023-04-03T00:01:00;1.70;66.30
64987;DHT22;67903;52.108;9.358;2023-04-03T00:03:26;1.70;66.50
64987;DHT22;67903;52.108;9.358;2023-04-03T00:05:53;1.60;66.70
64987;DHT22;67903;52.108;9.358;2023-04-03T00:08:21;1.60;66.90
64987;DHT22;67903;52.108;9.358;2023-04-03T00:10:48;1.60;67.00
64987;DHT22;67903;52.108;9.358;2023-04-03T00:13:15;1.60;66.90
64987;DHT22;67903;52.108;9.358;2023-04-03T00:15:42;1.50;67.20
64987;DHT22;67903;52.108;9.358;2023-04-03T00:18:09;1.40;67.20
64987;DHT22;67903;52.108;9.358;2023-04-03T00:20:36;1.40;67.20
64987;DHT22;67903;52.108;9.358;2023-04-03T00:23:04;1.40;67.50
64987;DHT22;67903;52.108;9.358;2023-04-03T00:25:31;1.40;67.70
64987;DHT22;67903;52.108;9.358;2023-04-03T00:27:58;1.40;67.50
64987;DHT22;67903;52.108;9.358;2023-04-03T00:30:25;1.30;67.50
64987;DHT22;67903;52.108;9.358;2023-04-03T00:32:53;1.20;67.60
64987;DHT22;67903;52.108;9.358;2023-04-03T00:35:21;1.30;67.70
64987;DHT22;67903;52.108;9.358;2023-04-03T00:37:51;1.40;67.40
64987;DHT22;67903;52.108;9.358;2023-04-03T00:40:18;1.30;67.50
64987;DHT22;67903;52.108;9.358;2023-04-03T00:42:47;1.20;67.70
64987;DHT22;67903;52.108;9.358;2023-04-03T00:47:56;1.20;67.60
64987;DHT22;67903;52.108;9.358;2023-04-03T00:50:28;1.20;67.90
64987;DHT22;67903;52.108;9.358;2023-04-03T00:52:56;1.20;68.00
64987;DHT22;67903;52.108;9.358;2023-04-03T00:55:24;1.10;68.10
64987;DHT22;67903;52.108;9.358;2023-04-03T00:57:52;1.20;68.20
64987;DHT22;67903;52.108;9.358;2023-04-03T01:00:21;1.10;68.30
64987;DHT22;67903;52.108;9.358;2023-04-03T01:02:50;1.00;68.50
64987;DHT22;67903;52.108;9.358;2023-04-03T01:05:19;1.00;68.70
64987;DHT22;67903;52.108;9.358;2023-04-03T01:07:49;1.00;68.70
64987;DHT22;67903;52.108;9.358;2023-04-03T01:10:17;1.00;68.70
64987;DHT22;67903;52.108;9.358;2023-04-03T01:12:49;1.00;69.00
64987;DHT22;67903;52.108;9.358;2023-04-03T01:15:26;1.00;69.20
64987;DHT22;67903;52.108;9.358;2023-04-03T01:17:56;1.00;69.20
64987;DHT22;67903;52.108;9.358;2023-04-03T01:25:41;0.90;69.10
64987;DHT22;67903;52.108;9.358;2023-04-03T01:28:12;0.80;69.20
64987;DHT22;67903;52.108;9.358;2023-04-03T01:31:13;0.80;69.20
64987;DHT22;67903;52.108;9.358;2023-04-03T01:33:43;0.80;69.20
64987;DHT22;67903;52.108;9.358;2023-04-03T01:36:19;0.80;69.50
64987;DHT22;67903;52.108;9.358;2023-04-03T01:38:48;0.80;69.50
64987;DHT22;67903;52.108;9.358;2023-04-03T01:41:15;0.60;69.80
64987;DHT22;67903;52.108;9.358;2023-04-03T01:43:44;0.60;70.20
64987;DHT22;67903;52.108;9.358;2023-04-03T01:46:10;0.60;70.10
64987;DHT22;67903;52.108;9.358;2023-04-03T01:48:38;0.60;70.20
64987;DHT22;67903;52.108;9.358;2023-04-03T01:51:04;0.60;70.20
64987;DHT22;67903;52.108;9.358;2023-04-03T01:53:31;0.60;70.20
64987;DHT22;67903;52.108;9.358;2023-04-03T01:55:58;0.60;70.50
64987;DHT22;67903;52.108;9.358;2023-04-03T01:58:25;0.50;70.50
64987;DHT22;67903;52.108;9.358;2023-04-03T02:00:53;0.50;70.50
64987;DHT22;67903;52.108;9.358;2023-04-03T02:03:20;0.50;70.50
64987;DHT22;67903;52.108;9.358;2023-04-03T02:05:48;0.50;70.40
64987;DHT22;67903;52.108;9.358;2023-04-03T02:08:15;0.50;70.50
64987;DHT22;67903;52.108;9.358;2023-04-03T02:10:46;0.50;70.70
64987;DHT22;67903;52.108;9.358;2023-04-03T02:13:13;0.40;70.50
64987;DHT22;67903;52.108;9.358;2023-04-03T02:15:41;0.40;70.70
64987;DHT22;67903;52.108;9.358;2023-04-03T02:18:08;0.40;70.80
64987;DHT22;67903;52.108;9.358;2023-04-03T02:20:34;0.30;70.90
64987;DHT22;67903;52.108;9.358;2023-04-03T02:23:02;0.30;71.20
64987;DHT22;67903;52.108;9.358;2023-04-03T02:25:30;0.30;71.40
64987;DHT22;67903;52.108;9.358;2023-04-03T02:27:57;0.30;71.30
64987;DHT22;67903;52.108;9.358;2023-04-03T02:30:24;0.30;71.30
64987;DHT22;67903;52.108;9.358;2023-04-03T02:32:52;0.20;71.10
64987;DHT22;67903;52.108;9.358;2023-04-03T02:35:19;0.10;71.60
64987;DHT22;67903;52.108;9.358;2023-04-03T02:37:47;0.00;71.90
64987;DHT22;67903;52.108;9.358;2023-04-03T02:40:14;0.00;72.00
64987;DHT22;67903;52.108;9.358;2023-04-03T02:42:41;0.00;72.10
64987;DHT22;67903;52.108;9.358;2023-04-03T02:45:08;0.00;71.90
64987;DHT22;67903;52.108;9.358;2023-04-03T02:47:35;0.00;71.90
64987;DHT22;67903;52.108;9.358;2023-04-03T02:50:02;0.00;72.20
64987;DHT22;67903;52.108;9.358;2023-04-03T02:52:31;0.00;72.30
64987;DHT22;67903;52.108;9.358;2023-04-03T02:54:58;0.10;72.10
64987;DHT22;67903;52.108;9.358;2023-04-03T02:57:25;0.00;72.30
64987;DHT22;67903;52.108;9.358;2023-04-03T02:59:52;0.00;72.30
64987;DHT22;67903;52.108;9.358;2023-04-03T03:02:19;0.00;72.20
64987;DHT22;67903;52.108;9.358;2023-04-03T03:04:46;0.00;72.40
64987;DHT22;67903;52.108;9.358;2023-04-03T03:07:13;0.00;72.40
64987;DHT22;67903;52.108;9.358;2023-04-03T03:09:40;0.00;72.20
64987;DHT22;67903;52.108;9.358;2023-04-03T03:12:07;0.00;72.20
64987;DHT22;67903;52.108;9.358;2023-04-03T03:14:33;0.00;72.20
64987;DHT22;67903;52.108;9.358;2023-04-03T03:17:01;0.00;72.20
64987;DHT22;67903;52.108;9.358;2023-04-03T03:19:28;0.00;72.30
64987;DHT22;67903;52.108;9.358;2023-04-03T03:21:55;0.00;72.20
64987;DHT22;67903;52.108;9.358;2023-04-03T03:24:23;0.00;72.10
64987;DHT22;67903;52.108;9.358;2023-04-03T03:26:50;0.00;72.30
64987;DHT22;67903;52.108;9.358;2023-04-03T03:29:17;0.00;72.30
64987;DHT22;67903;52.108;9.358;2023-04-03T03:31:44;0.00;72.40
64987;DHT22;67903;52.108;9.358;2023-04-03T03:34:11;-0.10;72.60
64987;DHT22;67903;52.108;9.358;2023-04-03T03:36:38;-0.10;72.60
64987;DHT22;67903;52.108;9.358;2023-04-03T03:39:05;-0.10;72.60
64987;DHT22;67903;52.108;9.358;2023-04-03T03:41:32;-0.10;72.60
64987;DHT22;67903;52.108;9.358;2023-04-03T03:43:59;-0.10;72.90
64987;DHT22;67903;52.108;9.358;2023-04-03T03:46:28;-0.10;73.00
64987;DHT22;67903;52.108;9.358;2023-04-03T03:48:55;-0.10;72.80
64987;DHT22;67903;52.108;9.358;2023-04-03T03:51:22;-0.10;72.70
64987;DHT22;67903;52.108;9.358;2023-04-03T03:53:49;-0.10;72.80
64987;DHT22;67903;52.108;9.358;2023-04-03T03:56:18;-0.10;72.80
64987;DHT22;67903;52.108;9.358;2023-04-03T03:58:46;-0.20;72.90
64987;DHT22;67903;52.108;9.358;2023-04-03T04:01:13;-0.20;73.20
64987;DHT22;67903;52.108;9.358;2023-04-03T04:03:45;-0.20;73.20
64987;DHT22;67903;52.108;9.358;2023-04-03T04:06:16;-0.20;73.00
64987;DHT22;67903;52.108;9.358;2023-04-03T04:08:43;-0.20;73.10
64987;DHT22;67903;52.108;9.358;2023-04-03T04:11:12;-0.20;72.90
64987;DHT22;67903;52.108;9.358;2023-04-03T04:13:40;-0.20;73.10
64987;DHT22;67903;52.108;9.358;2023-04-03T04:16:09;-0.30;73.30
64987;DHT22;67903;52.108;9.358;2023-04-03T04:18:37;-0.20;73.30
64987;DHT22;67903;52.108;9.358;2023-04-03T04:21:04;-0.30;73.20
64987;DHT22;67903;52.108;9.358;2023-04-03T04:23:31;-0.40;73.60
64987;DHT22;67903;52.108;9.358;2023-04-03T04:25:59;-0.40;73.50
64987;DHT22;67903;52.108;9.358;2023-04-03T04:28:29;-0.40;73.50
64987;DHT22;67903;52.108;9.358;2023-04-03T04:30:57;-0.30;73.40
64987;DHT22;67903;52.108;9.358;2023-04-03T04:33:26;-0.40;73.50
64987;DHT22;67903;52.108;9.358;2023-04-03T04:35:54;-0.40;73.60
64987;DHT22;67903;52.108;9.358;2023-04-03T04:38:21;-0.50;73.80
64987;DHT22;67903;52.108;9.358;2023-04-03T04:40:50;-0.60;73.90
64987;DHT22;67903;52.108;9.358;2023-04-03T04:43:18;-0.50;74.10
64987;DHT22;67903;52.108;9.358;2023-04-03T04:45:47;-0.50;74.00
64987;DHT22;67903;52.108;9.358;2023-04-03T04:48:17;-0.50;73.80
64987;DHT22;67903;52.108;9.358;2023-04-03T04:50:44;-0.50;73.90
64987;DHT22;67903;52.108;9.358;2023-04-03T04:53:12;-0.50;74.00
64987;DHT22;67903;52.108;9.358;2023-04-03T04:55:38;-0.60;74.30
64987;DHT22;67903;52.108;9.358;2023-04-03T04:58:06;-0.60;74.30
64987;DHT22;67903;52.108;9.358;2023-04-03T05:00:33;-0.60;74.20
64987;DHT22;67903;52.108;9.358;2023-04-03T05:03:00;-0.70;74.30
64987;DHT22;67903;52.108;9.358;2023-04-03T05:05:28;-0.70;74.60
64987;DHT22;67903;52.108;9.358;2023-04-03T05:07:55;-0.70;74.70
64987;DHT22;67903;52.108;9.358;2023-04-03T05:10:22;-0.80;74.90
64987;DHT22;67903;52.108;9.358;2023-04-03T05:12:48;-0.70;75.20
64987;DHT22;67903;52.108;9.358;2023-04-03T05:15:15;-0.70;74.90
64987;DHT22;67903;52.108;9.358;2023-04-03T05:17:43;-0.70;75.20
64987;DHT22;67903;52.108;9.358;2023-04-03T05:20:13;-0.70;74.60
64987;DHT22;67903;52.108;9.358;2023-04-03T05:22:41;-0.60;74.50
64987;DHT22;67903;52.108;9.358;2023-04-03T05:25:09;-0.60;74.10
64987;DHT22;67903;52.108;9.358;2023-04-03T05:27:37;-0.70;74.60
64987;DHT22;67903;52.108;9.358;2023-04-03T05:30:04;-0.60;74.50
64987;DHT22;67903;52.108;9.358;2023-04-03T05:32:33;-0.60;74.60
64987;DHT22;67903;52.108;9.358;2023-04-03T05:35:15;-0.60;74.60
64987;DHT22;67903;52.108;9.358;2023-04-03T05:37:44;-0.60;74.50
64987;DHT22;67903;52.108;9.358;2023-04-03T05:40:11;-0.50;74.10
64987;DHT22;67903;52.108;9.358;2023-04-03T05:42:41;-0.50;74.40
64987;DHT22;67903;52.108;9.358;2023-04-03T05:45:08;-0.60;74.40
64987;DHT22;67903;52.108;9.358;2023-04-03T05:47:35;-0.60;74.10
64987;DHT22;67903;52.108;9.358;2023-04-03T05:50:03;-0.60;74.20
64987;DHT22;67903;52.108;9.358;2023-04-03T05:52:33;-0.60;74.40
64987;DHT22;67903;52.108;9.358;2023-04-03T05:55:01;-0.60;74.20
64987;DHT22;67903;52.108;9.358;2023-04-03T05:57:30;-0.60;74.10
64987;DHT22;67903;52.108;9.358;2023-04-03T05:59:57;-0.50;74.00
64987;DHT22;67903;52.108;9.358;2023-04-03T06:02:25;-0.50;73.90
64987;DHT22;67903;52.108;9.358;2023-04-03T06:04:53;-0.40;73.60
64987;DHT22;67903;52.108;9.358;2023-04-03T06:07:22;-0.40;73.60
64987;DHT22;67903;52.108;9.358;2023-04-03T06:09:50;-0.20;73.20
64987;DHT22;67903;52.108;9.358;2023-04-03T06:12:20;-0.20;72.80
64987;DHT22;67903;52.108;9.358;2023-04-03T06:14:47;-0.20;73.10
64987;DHT22;67903;52.108;9.358;2023-04-03T06:17:15;-0.20;73.20
64987;DHT22;67903;52.108;9.358;2023-04-03T06:19:44;-0.10;73.00
64987;DHT22;67903;52.108;9.358;2023-04-03T06:22:11;-0.10;72.80
64987;DHT22;67903;52.108;9.358;2023-04-03T06:24:38;-0.10;72.60
64987;DHT22;67903;52.108;9.358;2023-04-03T06:27:05;-0.10;72.40
64987;DHT22;67903;52.108;9.358;2023-04-03T06:29:31;-0.10;72.30
64987;DHT22;67903;52.108;9.358;2023-04-03T06:31:58;0.00;72.20
64987;DHT22;67903;52.108;9.358;2023-04-03T06:34:25;0.00;71.60
64987;DHT22;67903;52.108;9.358;2023-04-03T06:36:52;0.00;71.40
64987;DHT22;67903;52.108;9.358;2023-04-03T06:39:21;0.20;71.40
64987;DHT22;67903;52.108;9.358;2023-04-03T06:41:50;0.20;71.30
64987;DHT22;67903;52.108;9.358;2023-04-03T06:44:18;0.20;71.40
64987;DHT22;67903;52.108;9.358;2023-04-03T06:46:45;0.40;70.90
64987;DHT22;67903;52.108;9.358;2023-04-03T06:49:13;0.30;70.90
64987;DHT22;67903;52.108;9.358;2023-04-03T06:51:40;0.30;70.90
64987;DHT22;67903;52.108;9.358;2023-04-03T06:54:07;0.40;71.00
64987;DHT22;67903;52.108;9.358;2023-04-03T06:56:34;0.40;71.00
64987;DHT22;67903;52.108;9.358;2023-04-03T06:59:02;0.40;70.90
64987;DHT22;67903;52.108;9.358;2023-04-03T07:01:29;0.50;71.10
64987;DHT22;67903;52.108;9.358;2023-04-03T07:03:57;0.50;70.60
64987;DHT22;67903;52.108;9.358;2023-04-03T07:06:24;0.60;70.00
64987;DHT22;67903;52.108;9.358;2023-04-03T07:08:54;0.60;69.90
64987;DHT22;67903;52.108;9.358;2023-04-03T07:11:22;0.70;69.80
64987;DHT22;67903;52.108;9.358;2023-04-03T07:13:49;0.80;69.50
64987;DHT22;67903;52.108;9.358;2023-04-03T07:16:16;0.80;69.50
64987;DHT22;67903;52.108;9.358;2023-04-03T07:18:43;0.80;69.10
64987;DHT22;67903;52.108;9.358;2023-04-03T07:21:10;0.90;69.20
64987;DHT22;67903;52.108;9.358;2023-04-03T07:23:37;1.00;69.00
64987;DHT22;67903;52.108;9.358;2023-04-03T07:26:04;1.00;69.00
64987;DHT22;67903;52.108;9.358;2023-04-03T07:28:31;1.10;68.70
64987;DHT22;67903;52.108;9.358;2023-04-03T07:31:04;1.10;68.50
64987;DHT22;67903;52.108;9.358;2023-04-03T07:33:32;1.20;68.20
64987;DHT22;67903;52.108;9.358;2023-04-03T07:35:59;1.20;68.00
64987;DHT22;67903;52.108;9.358;2023-04-03T07:38:27;1.20;68.00
64987;DHT22;67903;52.108;9.358;2023-04-03T07:40:54;1.30;67.80
64987;DHT22;67903;52.108;9.358;2023-04-03T07:43:21;1.40;67.30
64987;DHT22;67903;52.108;9.358;2023-04-03T07:45:49;1.40;67.60
64987;DHT22;67903;52.108;9.358;2023-04-03T07:48:25;1.40;67.20
64987;DHT22;67903;52.108;9.358;2023-04-03T07:50:52;1.60;67.30
64987;DHT22;67903;52.108;9.358;2023-04-03T07:53:19;1.60;66.70
64987;DHT22;67903;52.108;9.358;2023-04-03T07:55:47;1.70;66.60
64987;DHT22;67903;52.108;9.358;2023-04-03T07:58:17;1.80;66.40
64987;DHT22;67903;52.108;9.358;2023-04-03T08:00:45;1.90;66.50
64987;DHT22;67903;52.108;9.358;2023-04-03T08:03:12;2.10;65.90
64987;DHT22;67903;52.108;9.358;2023-04-03T08:05:41;2.20;65.60
64987;DHT22;67903;52.108;9.358;2023-04-03T08:08:09;2.30;65.10
64987;DHT22;67903;52.108;9.358;2023-04-03T08:10:37;2.40;64.60
64987;DHT22;67903;52.108;9.358;2023-04-03T08:13:04;2.40;64.20
64987;DHT22;67903;52.108;9.358;2023-04-03T08:15:31;2.50;64.40
64987;DHT22;67903;52.108;9.358;2023-04-03T08:17:59;2.70;63.90
64987;DHT22;67903;52.108;9.358;2023-04-03T08:20:27;2.70;64.10
64987;DHT22;67903;52.108;9.358;2023-04-03T08:22:54;2.80;63.90
64987;DHT22;67903;52.108;9.358;2023-04-03T08:25:21;2.80;63.70
64987;DHT22;67903;52.108;9.358;2023-04-03T08:27:48;3.00;63.30
64987;DHT22;67903;52.108;9.358;2023-04-03T08:30:15;3.10;63.20
64987;DHT22;67903;52.108;9.358;2023-04-03T08:32:42;3.10;62.30
64987;DHT22;67903;52.108;9.358;2023-04-03T08:35:11;3.00;62.40
64987;DHT22;67903;52.108;9.358;2023-04-03T08:37:39;2.90;62.50
64987;DHT22;67903;52.108;9.358;2023-04-03T08:40:07;3.00;62.90
64987;DHT22;67903;52.108;9.358;2023-04-03T08:45:37;2.90;62.30
64987;DHT22;67903;52.108;9.358;2023-04-03T08:48:24;2.90;63.10
64987;DHT22;67903;52.108;9.358;2023-04-03T08:50:57;2.70;62.90
64987;DHT22;67903;52.108;9.358;2023-04-03T08:53:32;2.90;62.90
64987;DHT22;67903;52.108;9.358;2023-04-03T08:56:05;3.10;63.00
64987;DHT22;67903;52.108;9.358;2023-04-03T08:59:24;3.20;62.50
64987;DHT22;67903;52.108;9.358;2023-04-03T09:01:36;3.40;60.90
64987;DHT22;67903;52.108;9.358;2023-04-03T09:04:10;3.30;60.90
64987;DHT22;67903;52.108;9.358;2023-04-03T09:06:38;3.50;60.60
64987;DHT22;67903;52.108;9.358;2023-04-03T09:09:13;3.30;60.60
64987;DHT22;67903;52.108;9.358;2023-04-03T09:11:51;3.20;60.80
64987;DHT22;67903;52.108;9.358;2023-04-03T09:17:36;3.50;60.10
64987;DHT22;67903;52.108;9.358;2023-04-03T09:23:01;3.60;59.00
64987;DHT22;67903;52.108;9.358;2023-04-03T09:25:34;3.70;58.90
64987;DHT22;67903;52.108;9.358;2023-04-03T09:28:04;3.80;58.70
64987;DHT22;67903;52.108;9.358;2023-04-03T09:30:36;4.00;58.50
64987;DHT22;67903;52.108;9.358;2023-04-03T09:33:05;4.10;57.90
64987;DHT22;67903;52.108;9.358;2023-04-03T09:35:36;4.20;57.00
64987;DHT22;67903;52.108;9.358;2023-04-03T09:38:20;4.20;57.50
64987;DHT22;67903;52.108;9.358;2023-04-03T09:40:50;4.30;57.80
64987;DHT22;67903;52.108;9.358;2023-04-03T09:43:27;4.30;57.20
64987;DHT22;67903;52.108;9.358;2023-04-03T09:45:56;4.40;57.50
64987;DHT22;67903;52.108;9.358;2023-04-03T09:48:25;4.60;56.70
64987;DHT22;67903;52.108;9.358;2023-04-03T09:50:58;4.90;55.30
64987;DHT22;67903;52.108;9.358;2023-04-03T09:55:58;5.00;54.10
64987;DHT22;67903;52.108;9.358;2023-04-03T09:58:31;5.10;54.00
64987;DHT22;67903;52.108;9.358;2023-04-03T10:04:07;5.50;53.40
64987;DHT22;67903;52.108;9.358;2023-04-03T10:06:40;5.50;52.90
64987;DHT22;67903;52.108;9.358;2023-04-03T10:09:30;5.30;52.60
64987;DHT22;67903;52.108;9.358;2023-04-03T10:12:08;5.30;52.20
64987;DHT22;67903;52.108;9.358;2023-04-03T10:14:39;5.30;52.10
64987;DHT22;67903;52.108;9.358;2023-04-03T10:28:11;6.10;50.50
64987;DHT22;67903;52.108;9.358;2023-04-03T10:30:50;6.30;49.90
64987;DHT22;67903;52.108;9.358;2023-04-03T10:33:34;6.40;49.20
64987;DHT22;67903;52.108;9.358;2023-04-03T10:36:36;6.30;47.90
64987;DHT22;67903;52.108;9.358;2023-04-03T10:39:27;6.00;47.90
64987;DHT22;67903;52.108;9.358;2023-04-03T10:42:26;5.90;47.80
64987;DHT22;67903;52.108;9.358;2023-04-03T10:47:52;5.80;47.80
64987;DHT22;67903;52.108;9.358;2023-04-03T10:50:23;6.00;48.30
64987;DHT22;67903;52.108;9.358;2023-04-03T10:53:11;5.90;48.60
64987;DHT22;67903;52.108;9.358;2023-04-03T10:55:57;6.00;48.30
64987;DHT22;67903;52.108;9.358;2023-04-03T10:58:43;5.90;48.00
64987;DHT22;67903;52.108;9.358;2023-04-03T11:01:18;6.00;48.40
64987;DHT22;67903;52.108;9.358;2023-04-03T11:03:53;6.00;48.10
64987;DHT22;67903;52.108;9.358;2023-04-03T11:06:23;6.00;48.20
64987;DHT22;67903;52.108;9.358;2023-04-03T11:09:02;6.10;48.80
64987;DHT22;67903;52.108;9.358;2023-04-03T11:11:33;6.30;48.40
64987;DHT22;67903;52.108;9.358;2023-04-03T11:14:09;6.10;48.00
64987;DHT22;67903;52.108;9.358;2023-04-03T11:16:46;6.10;48.50
64987;DHT22;67903;52.108;9.358;2023-04-03T11:19:29;6.00;48.90
64987;DHT22;67903;52.108;9.358;2023-04-03T11:22:29;6.00;49.40
64987;DHT22;67903;52.108;9.358;2023-04-03T11:25:15;5.90;48.50
64987;DHT22;67903;52.108;9.358;2023-04-03T11:28:04;6.00;48.00
64987;DHT22;67903;52.108;9.358;2023-04-03T11:36:18;6.00;48.30
64987;DHT22;67903;52.108;9.358;2023-04-03T11:38:58;5.90;48.10
64987;DHT22;67903;52.108;9.358;2023-04-03T11:41:28;5.80;48.40
64987;DHT22;67903;52.108;9.358;2023-04-03T11:46:51;5.80;47.10
64987;DHT22;67903;52.108;9.358;2023-04-03T12:00:48;6.90;44.30
64987;DHT22;67903;52.108;9.358;2023-04-03T12:19:38;6.60;46.20
64987;DHT22;67903;52.108;9.358;2023-04-03T12:22:13;7.00;46.00
64987;DHT22;67903;52.108;9.358;2023-04-03T12:24:45;7.30;44.90
64987;DHT22;67903;52.108;9.358;2023-04-03T12:27:28;7.50;43.90
64987;DHT22;67903;52.108;9.358;2023-04-03T12:30:19;7.20;43.20
64987;DHT22;67903;52.108;9.358;2023-04-03T12:33:13;7.30;44.20
64987;DHT22;67903;52.108;9.358;2023-04-03T12:38:47;6.90;44.80
64987;DHT22;67903;52.108;9.358;2023-04-03T12:46:49;6.50;45.80
64987;DHT22;67903;52.108;9.358;2023-04-03T12:49:38;6.50;45.90
64987;DHT22;67903;52.108;9.358;2023-04-03T12:52:26;6.60;46.10
64987;DHT22;67903;52.108;9.358;2023-04-03T12:54:56;6.90;46.30
64987;DHT22;67903;52.108;9.358;2023-04-03T12:57:26;7.40;45.60
64987;DHT22;67903;52.108;9.358;2023-04-03T12:59:54;8.00;44.60
64987;DHT22;67903;52.108;9.358;2023-04-03T13:02:32;8.40;44.00
64987;DHT22;67903;52.108;9.358;2023-04-03T13:05:07;8.40;43.30
64987;DHT22;67903;52.108;9.358;2023-04-03T13:07:36;8.60;43.60
64987;DHT22;67903;52.108;9.358;2023-04-03T13:12:56;8.30;42.40
64987;DHT22;67903;52.108;9.358;2023-04-03T13:15:26;8.10;42.80
64987;DHT22;67903;52.108;9.358;2023-04-03T13:17:54;8.00;43.70
64987;DHT22;67903;52.108;9.358;2023-04-03T13:20:30;7.70;44.10
64987;DHT22;67903;52.108;9.358;2023-04-03T13:23:02;7.50;44.60
64987;DHT22;67903;52.108;9.358;2023-04-03T13:25:36;7.80;44.20
64987;DHT22;67903;52.108;9.358;2023-04-03T13:28:06;8.10;43.20
64987;DHT22;67903;52.108;9.358;2023-04-03T13:30:41;8.10;43.40
64987;DHT22;67903;52.108;9.358;2023-04-03T13:33:24;8.00;42.90
64987;DHT22;67903;52.108;9.358;2023-04-03T13:36:02;8.00;42.90
64987;DHT22;67903;52.108;9.358;2023-04-03T13:38:31;7.60;42.10
64987;DHT22;67903;52.108;9.358;2023-04-03T13:41:20;7.40;42.70
64987;DHT22;67903;52.108;9.358;2023-04-03T13:43:47;7.40;43.10
64987;DHT22;67903;52.108;9.358;2023-04-03T13:48:48;7.50;43.30
64987;DHT22;67903;52.108;9.358;2023-04-03T13:51:17;7.50;43.20
64987;DHT22;67903;52.108;9.358;2023-04-03T13:54:00;7.80;42.80
64987;DHT22;67903;52.108;9.358;2023-04-03T13:56:33;8.20;42.40
64987;DHT22;67903;52.108;9.358;2023-04-03T13:59:22;8.30;41.80
64987;DHT22;67903;52.108;9.358;2023-04-03T14:07:12;7.80;43.00
64987;DHT22;67903;52.108;9.358;2023-04-03T14:09:39;8.00;42.70
64987;DHT22;67903;52.108;9.358;2023-04-03T14:14:58;7.80;42.40
64987;DHT22;67903;52.108;9.358;2023-04-03T14:17:25;7.40;42.90
64987;DHT22;67903;52.108;9.358;2023-04-03T14:19:54;7.00;43.70
64987;DHT22;67903;52.108;9.358;2023-04-03T14:22:31;7.20;43.90
64987;DHT22;67903;52.108;9.358;2023-04-03T14:24:59;7.30;43.30
64987;DHT22;67903;52.108;9.358;2023-04-03T14:27:38;7.20;44.10
64987;DHT22;67903;52.108;9.358;2023-04-03T14:30:09;7.50;43.00
64987;DHT22;67903;52.108;9.358;2023-04-03T14:32:36;7.90;42.20
64987;DHT22;67903;52.108;9.358;2023-04-03T14:35:03;7.90;42.00
64987;DHT22;67903;52.108;9.358;2023-04-03T14:37:31;8.00;41.80
64987;DHT22;67903;52.108;9.358;2023-04-03T14:39:59;8.00;42.20
64987;DHT22;67903;52.108;9.358;2023-04-03T14:42:32;7.80;42.50
64987;DHT22;67903;52.108;9.358;2023-04-03T14:45:01;7.50;42.60
64987;DHT22;67903;52.108;9.358;2023-04-03T14:47:30;7.50;43.50
64987;DHT22;67903;52.108;9.358;2023-04-03T14:50:03;7.40;43.40
64987;DHT22;67903;52.108;9.358;2023-04-03T14:52:34;7.40;43.30
64987;DHT22;67903;52.108;9.358;2023-04-03T14:55:04;7.20;42.40
64987;DHT22;67903;52.108;9.358;2023-04-03T14:57:32;7.20;42.50
64987;DHT22;67903;52.108;9.358;2023-04-03T14:59:59;7.00;43.10
64987;DHT22;67903;52.108;9.358;2023-04-03T15:02:31;7.30;43.20
64987;DHT22;67903;52.108;9.358;2023-04-03T15:05:00;7.40;43.20
64987;DHT22;67903;52.108;9.358;2023-04-03T15:07:32;7.50;43.30
64987;DHT22;67903;52.108;9.358;2023-04-03T15:10:06;7.50;42.80
64987;DHT22;67903;52.108;9.358;2023-04-03T15:12:40;7.50;42.80
64987;DHT22;67903;52.108;9.358;2023-04-03T15:15:07;7.30;42.40
64987;DHT22;67903;52.108;9.358;2023-04-03T15:17:36;7.20;42.90
64987;DHT22;67903;52.108;9.358;2023-04-03T15:20:11;7.50;42.90
64987;DHT22;67903;52.108;9.358;2023-04-03T15:22:38;7.60;42.50
64987;DHT22;67903;52.108;9.358;2023-04-03T15:25:06;7.80;42.20
64987;DHT22;67903;52.108;9.358;2023-04-03T15:27:34;7.90;41.50
64987;DHT22;67903;52.108;9.358;2023-04-03T15:30:01;7.80;41.60
64987;DHT22;67903;52.108;9.358;2023-04-03T15:32:27;7.80;41.10
64987;DHT22;67903;52.108;9.358;2023-04-03T15:34:57;7.80;41.30
64987;DHT22;67903;52.108;9.358;2023-04-03T15:37:24;7.80;41.80
64987;DHT22;67903;52.108;9.358;2023-04-03T15:39:51;7.80;41.50
64987;DHT22;67903;52.108;9.358;2023-04-03T15:42:18;7.80;41.80
64987;DHT22;67903;52.108;9.358;2023-04-03T15:44:45;7.80;41.80
64987;DHT22;67903;52.108;9.358;2023-04-03T15:47:12;8.10;42.40
64987;DHT22;67903;52.108;9.358;2023-04-03T15:49:39;8.00;41.90
64987;DHT22;67903;52.108;9.358;2023-04-03T15:52:06;7.80;42.50
64987;DHT22;67903;52.108;9.358;2023-04-03T15:54:33;7.60;42.50
64987;DHT22;67903;52.108;9.358;2023-04-03T15:57:00;7.50;42.60
64987;DHT22;67903;52.108;9.358;2023-04-03T15:59:27;7.30;42.90
64987;DHT22;67903;52.108;9.358;2023-04-03T16:01:57;7.00;43.00
64987;DHT22;67903;52.108;9.358;2023-04-03T16:04:25;6.70;43.70
64987;DHT22;67903;52.108;9.358;2023-04-03T16:06:51;6.60;43.90
64987;DHT22;67903;52.108;9.358;2023-04-03T16:09:19;6.50;44.00
64987;DHT22;67903;52.108;9.358;2023-04-03T16:11:45;6.60;44.20
64987;DHT22;67903;52.108;9.358;2023-04-03T16:14:12;6.60;44.40
64987;DHT22;67903;52.108;9.358;2023-04-03T16:16:39;6.70;44.00
64987;DHT22;67903;52.108;9.358;2023-04-03T16:19:06;6.80;43.50
64987;DHT22;67903;52.108;9.358;2023-04-03T16:21:33;6.90;43.00
64987;DHT22;67903;52.108;9.358;2023-04-03T16:24:01;6.80;42.90
64987;DHT22;67903;52.108;9.358;2023-04-03T16:26:28;6.80;43.00
64987;DHT22;67903;52.108;9.358;2023-04-03T16:28:55;6.80;43.30
64987;DHT22;67903;52.108;9.358;2023-04-03T16:31:23;6.70;43.50
64987;DHT22;67903;52.108;9.358;2023-04-03T16:33:51;6.60;43.90
64987;DHT22;67903;52.108;9.358;2023-04-03T16:36:18;6.60;44.00
64987;DHT22;67903;52.108;9.358;2023-04-03T16:38:44;6.40;44.40
64987;DHT22;67903;52.108;9.358;2023-04-03T16:41:11;6.30;45.00
64987;DHT22;67903;52.108;9.358;2023-04-03T16:43:38;6.30;45.30
64987;DHT22;67903;52.108;9.358;2023-04-03T16:46:05;6.40;45.10
64987;DHT22;67903;52.108;9.358;2023-04-03T16:48:32;6.50;45.10
64987;DHT22;67903;52.108;9.358;2023-04-03T16:50:59;6.60;45.10
64987;DHT22;67903;52.108;9.358;2023-04-03T16:53:26;6.60;44.80
64987;DHT22;67903;52.108;9.358;2023-04-03T16:55:53;6.70;44.50
64987;DHT22;67903;52.108;9.358;2023-04-03T16:58:20;6.80;44.10
64987;DHT22;67903;52.108;9.358;2023-04-03T17:00:50;6.90;43.70
64987;DHT22;67903;52.108;9.358;2023-04-03T17:03:17;7.00;44.10
64987;DHT22;67903;52.108;9.358;2023-04-03T17:05:47;6.90;43.60
64987;DHT22;67903;52.108;9.358;2023-04-03T17:08:15;6.70;44.10
64987;DHT22;67903;52.108;9.358;2023-04-03T17:10:42;6.60;44.50
64987;DHT22;67903;52.108;9.358;2023-04-03T17:13:09;6.50;45.10
64987;DHT22;67903;52.108;9.358;2023-04-03T17:15:36;6.40;45.40
64987;DHT22;67903;52.108;9.358;2023-04-03T17:18:03;6.40;45.40
64987;DHT22;67903;52.108;9.358;2023-04-03T17:20:30;6.30;45.70
64987;DHT22;67903;52.108;9.358;2023-04-03T17:22:59;6.20;45.70
64987;DHT22;67903;52.108;9.358;2023-04-03T17:25:26;6.20;45.70
64987;DHT22;67903;52.108;9.358;2023-04-03T17:27:52;6.10;46.40
64987;DHT22;67903;52.108;9.358;2023-04-03T17:30:19;6.10;46.50
64987;DHT22;67903;52.108;9.358;2023-04-03T17:32:46;6.10;46.80
64987;DHT22;67903;52.108;9.358;2023-04-03T17:35:13;6.00;46.30